createdAt,value
2023-05-06T00:00:00.241Z,66.68
2023-05-06T00:03:15.335Z,66.60
2023-05-06T00:06:30.281Z,65.39
2023-05-06T00:09:38.334Z,65.34
2023-05-06T00:12:47.034Z,66.54
2023-05-06T00:15:55.355Z,67.51
2023-05-06T00:19:05.456Z,68.01
2023-05-06T00:22:13.285Z,68.52
2023-05-06T00:25:21.741Z,68.99
2023-05-06T00:28:40.247Z,69.12
2023-05-06T00:31:48.292Z,69.37
2023-05-06T00:35:03.791Z,69.06
2023-05-06T00:38:20.272Z,67.61
2023-05-06T00:41:22.441Z,67.40
2023-05-06T00:44:37.266Z,67.19
2023-05-06T00:47:45.829Z,66.95
2023-05-06T00:50:54.289Z,66.97
2023-05-06T00:54:02.944Z,67.17
2023-05-06T00:57:11.276Z,67.38
2023-05-06T01:00:20.683Z,67.74
2023-05-06T01:03:29.401Z,68.20
2023-05-06T01:06:51.288Z,68.64
2023-05-06T01:10:10.699Z,68.42
2023-05-06T01:13:41.421Z,68.19
2023-05-06T01:17:01.350Z,68.08
2023-05-06T01:20:11.293Z,67.59
2023-05-06T01:23:20.667Z,67.72
2023-05-06T01:26:29.332Z,68.22
2023-05-06T01:29:42.110Z,68.18
2023-05-06T01:33:15.304Z,68.12
2023-05-06T01:36:42.347Z,68.38
2023-05-06T01:40:02.347Z,68.27
2023-05-06T01:43:06.387Z,68.38
2023-05-06T01:46:26.758Z,68.37
2023-05-06T01:49:29.912Z,68.65
2023-05-06T01:52:44.383Z,68.62
2023-05-06T01:55:46.053Z,68.50
2023-05-06T01:59:00.424Z,68.69
2023-05-06T02:02:08.921Z,68.58
2023-05-06T02:05:16.944Z,68.66
2023-05-06T02:08:31.319Z,68.98
2023-05-06T02:11:32.974Z,69.59
2023-05-06T02:14:47.337Z,70.45
2023-05-06T02:17:55.399Z,70.69
2023-05-06T02:21:04.055Z,70.85
2023-05-06T02:24:13.885Z,70.92
2023-05-06T02:27:22.074Z,71.04
2023-05-06T02:30:30.634Z,71.25
2023-05-06T02:33:45.340Z,71.22
2023-05-06T02:36:53.637Z,71.18
2023-05-06T02:40:02.099Z,70.73
2023-05-06T02:43:10.399Z,71.13
2023-05-06T02:46:18.865Z,71.20
2023-05-06T02:49:33.443Z,71.43
2023-05-06T02:52:42.930Z,71.94
2023-05-06T02:55:51.370Z,71.71
2023-05-06T02:59:06.345Z,71.63
2023-05-06T03:02:08.183Z,71.61
2023-05-06T03:05:23.396Z,71.54
2023-05-06T03:08:31.386Z,71.61
2023-05-06T03:11:40.706Z,71.54
2023-05-06T03:14:49.360Z,71.48
2023-05-06T03:17:57.886Z,71.84
2023-05-06T03:21:06.440Z,71.47
2023-05-06T03:24:21.423Z,71.23
2023-05-06T03:27:23.195Z,71.07
2023-05-06T03:30:37.360Z,71.01
2023-05-06T03:33:45.654Z,70.72
2023-05-06T03:37:00.388Z,70.85
2023-05-06T03:40:02.623Z,71.08
2023-05-06T03:43:17.411Z,71.28
2023-05-06T03:46:32.480Z,71.45
2023-05-06T03:49:47.412Z,71.18
2023-05-06T03:52:49.772Z,70.78
2023-05-06T03:56:04.631Z,70.61
2023-05-06T03:59:07.010Z,70.46
2023-05-06T04:02:23.500Z,70.40
2023-05-06T04:05:31.387Z,70.43
2023-05-06T04:08:46.453Z,70.46
2023-05-06T04:11:55.022Z,70.58
2023-05-06T04:15:09.600Z,70.54
2023-05-06T04:18:17.985Z,70.40
2023-05-06T04:21:26.470Z,70.23
2023-05-06T04:24:41.525Z,70.32
2023-05-06T04:27:43.146Z,70.28
2023-05-06T04:30:57.388Z,70.46
2023-05-06T04:34:12.980Z,70.11
2023-05-06T04:37:27.422Z,69.98
2023-05-06T04:40:29.370Z,70.44
2023-05-06T04:43:44.554Z,70.00
2023-05-06T04:46:52.436Z,70.12
2023-05-06T04:50:01.048Z,69.54
2023-05-06T04:53:09.737Z,69.22
2023-05-06T04:56:19.091Z,69.57
2023-05-06T04:59:33.402Z,68.90
2023-05-06T05:02:36.709Z,68.50
2023-05-06T05:05:51.421Z,68.56
2023-05-06T05:08:59.672Z,68.21
2023-05-06T05:12:15.178Z,68.39
2023-05-06T05:15:17.190Z,68.05
2023-05-06T05:18:31.417Z,68.19
2023-05-06T05:21:33.190Z,68.21
2023-05-06T05:24:47.551Z,68.12
2023-05-06T05:27:56.662Z,67.88
2023-05-06T05:31:10.496Z,67.64
2023-05-06T05:34:25.477Z,67.13
2023-05-06T05:37:35.122Z,67.11
2023-05-06T05:40:49.757Z,67.53
2023-05-06T05:43:51.479Z,66.93
2023-05-06T05:47:06.524Z,67.04
2023-05-06T05:50:08.900Z,66.51
2023-05-06T05:53:23.452Z,65.98
2023-05-06T05:56:32.149Z,65.80
2023-05-06T05:59:40.312Z,65.35
2023-05-06T06:02:48.488Z,64.67
2023-05-06T06:05:57.501Z,64.01
2023-05-06T06:09:05.548Z,63.49
2023-05-06T06:12:14.814Z,62.67
2023-05-06T06:15:23.532Z,62.20
2023-05-06T06:18:38.479Z,61.53
2023-05-06T06:21:40.263Z,61.74
2023-05-06T06:24:55.496Z,61.93
2023-05-06T06:28:03.789Z,61.33
2023-05-06T06:31:12.474Z,61.01
2023-05-06T06:34:20.476Z,60.96
2023-05-06T06:37:29.163Z,61.35
2023-05-06T06:40:43.490Z,61.13
2023-05-06T06:43:58.509Z,60.96
2023-05-06T06:47:00.190Z,60.40
2023-05-06T06:50:15.493Z,60.76
2023-05-06T06:53:30.511Z,60.51
2023-05-06T06:56:38.475Z,59.88
2023-05-06T06:59:47.354Z,60.18
2023-05-06T07:02:55.569Z,59.45
2023-05-06T07:06:04.078Z,59.43
2023-05-06T07:09:12.732Z,59.96
2023-05-06T07:12:27.541Z,59.19
2023-05-06T07:15:35.783Z,58.92
2023-05-06T07:18:44.258Z,58.98
2023-05-06T07:21:59.515Z,58.41
2023-05-06T07:25:15.559Z,57.88
2023-05-06T07:28:33.597Z,57.55
2023-05-06T07:31:36.321Z,57.82
2023-05-06T07:34:58.596Z,57.46
2023-05-06T07:38:00.287Z,57.14
2023-05-06T07:41:17.269Z,56.86
2023-05-06T07:44:25.217Z,57.13
2023-05-06T07:47:36.919Z,56.44
2023-05-06T07:50:51.553Z,56.53
2023-05-06T07:54:00.539Z,55.39
2023-05-06T07:57:09.327Z,54.37
2023-05-06T08:00:17.539Z,54.08
2023-05-06T08:03:33.201Z,54.00
2023-05-06T08:06:41.886Z,53.95
2023-05-06T08:09:56.593Z,53.52
2023-05-06T08:13:05.414Z,53.21
2023-05-06T08:16:13.579Z,52.85
2023-05-06T08:19:29.580Z,53.02
2023-05-06T08:22:38.208Z,52.63
2023-05-06T08:25:52.598Z,51.85
2023-05-06T08:28:54.767Z,51.16
2023-05-06T08:32:09.910Z,50.63
2023-05-06T08:35:32.557Z,51.56
2023-05-06T08:38:46.609Z,51.28
2023-05-06T08:41:57.727Z,50.28
2023-05-06T08:45:07.618Z,50.30
2023-05-06T08:48:23.730Z,50.55
2023-05-06T08:51:39.626Z,49.85
2023-05-06T08:54:42.541Z,49.71
2023-05-06T08:57:59.578Z,49.57
2023-05-06T09:01:10.389Z,49.90
2023-05-06T09:04:25.614Z,49.23
2023-05-06T09:07:27.510Z,48.61
2023-05-06T09:10:51.717Z,48.21
2023-05-06T09:14:19.602Z,48.40
2023-05-06T09:17:31.756Z,48.03
2023-05-06T09:20:41.649Z,47.44
2023-05-06T09:23:50.823Z,46.82
2023-05-06T09:27:08.338Z,46.52
2023-05-06T09:30:19.905Z,46.28
2023-05-06T09:33:41.601Z,44.84
2023-05-06T09:36:51.387Z,43.81
2023-05-06T09:40:06.664Z,37.26
2023-05-06T09:43:09.145Z,30.56
2023-05-06T09:46:24.010Z,26.91
2023-05-06T09:49:26.431Z,25.35
2023-05-06T09:52:41.942Z,27.20
2023-05-06T09:55:51.646Z,27.72
2023-05-06T09:59:07.633Z,26.22
2023-05-06T10:02:12.060Z,24.07
2023-05-06T10:05:27.859Z,21.95
2023-05-06T10:08:37.023Z,20.90
2023-05-06T10:11:53.643Z,21.67
2023-05-06T10:15:03.092Z,23.97
2023-05-06T10:18:13.624Z,23.73
2023-05-06T10:21:25.567Z,27.13
2023-05-06T10:24:43.683Z,25.21
2023-05-06T10:27:59.670Z,25.49
2023-05-06T10:31:04.552Z,28.83
2023-05-06T10:34:28.658Z,32.54
2023-05-06T10:37:39.964Z,32.66
2023-05-06T10:40:55.688Z,33.85
2023-05-06T10:44:04.657Z,35.08
2023-05-06T10:47:13.207Z,35.00
2023-05-06T10:50:30.646Z,33.53
2023-05-06T10:53:52.460Z,35.19
2023-05-06T10:57:14.682Z,32.45
2023-05-06T11:00:23.850Z,25.94
2023-05-06T11:03:32.584Z,24.15
2023-05-06T11:06:51.700Z,29.81
2023-05-06T11:10:02.482Z,31.15
2023-05-06T11:13:30.880Z,35.03
2023-05-06T11:16:57.705Z,36.91
2023-05-06T11:20:24.769Z,38.07
2023-05-06T11:24:03.030Z,37.08
2023-05-06T11:27:17.680Z,34.86
2023-05-06T11:30:25.726Z,34.69
2023-05-06T11:33:47.439Z,35.47
2023-05-06T11:37:08.718Z,37.10
2023-05-06T11:40:25.748Z,36.53
2023-05-06T11:43:27.455Z,36.15
2023-05-06T11:46:41.857Z,36.78
2023-05-06T11:49:43.564Z,36.57
2023-05-06T11:52:59.970Z,35.68
2023-05-06T11:56:08.723Z,35.10
2023-05-06T11:59:31.700Z,35.50
2023-05-06T12:02:47.837Z,34.99
2023-05-06T12:05:56.814Z,35.37
2023-05-06T12:09:05.714Z,35.64
2023-05-06T12:12:23.751Z,36.14
2023-05-06T12:15:25.597Z,36.44
2023-05-06T12:18:40.753Z,36.74
2023-05-06T12:21:43.477Z,37.25
2023-05-06T12:24:58.772Z,37.17
2023-05-06T12:28:00.618Z,36.98
2023-05-06T12:31:28.117Z,37.07
2023-05-06T12:34:39.134Z,37.38
2023-05-06T12:38:00.742Z,37.34
2023-05-06T12:41:02.364Z,38.09
2023-05-06T12:44:37.068Z,39.07
2023-05-06T12:47:45.513Z,39.67
2023-05-06T12:50:59.766Z,39.92
2023-05-06T12:54:08.482Z,40.47
2023-05-06T12:57:22.801Z,40.92
2023-05-06T13:00:37.927Z,41.09
2023-05-06T13:03:52.788Z,41.06
2023-05-06T13:06:58.051Z,40.97
2023-05-06T13:10:12.994Z,40.88
2023-05-06T13:13:23.119Z,40.90
2023-05-06T13:16:32.531Z,41.33
2023-05-06T13:19:40.794Z,41.23
2023-05-06T13:22:54.960Z,41.40
2023-05-06T13:26:05.585Z,41.41
2023-05-06T13:29:14.517Z,41.40
2023-05-06T13:32:22.795Z,41.28
2023-05-06T13:35:38.003Z,40.98
2023-05-06T13:38:45.820Z,41.55
2023-05-06T13:42:00.791Z,41.46
2023-05-06T13:45:02.631Z,41.74
2023-05-06T13:48:20.812Z,42.95
2023-05-06T13:51:29.411Z,46.48
2023-05-06T13:54:37.807Z,47.77
2023-05-06T13:57:46.436Z,48.46
2023-05-06T14:00:54.928Z,48.60
2023-05-06T14:04:09.833Z,48.29
2023-05-06T14:07:12.020Z,48.46
2023-05-06T14:10:28.088Z,48.69
2023-05-06T14:13:42.820Z,49.59
2023-05-06T14:16:51.302Z,49.61
2023-05-06T14:20:05.834Z,50.21
2023-05-06T14:23:15.596Z,50.61
2023-05-06T14:26:29.888Z,51.17
2023-05-06T14:29:31.760Z,51.75
2023-05-06T14:32:46.953Z,52.79
2023-05-06T14:35:55.123Z,53.69
2023-05-06T14:39:10.134Z,58.18
2023-05-06T14:42:11.988Z,61.11
2023-05-06T14:45:28.128Z,62.97
2023-05-06T14:48:36.359Z,62.79
2023-05-06T14:51:45.805Z,63.87
2023-05-06T14:54:55.253Z,65.41
2023-05-06T14:58:10.802Z,67.73
2023-05-06T15:01:22.457Z,68.96
2023-05-06T15:04:30.899Z,68.05
2023-05-06T15:07:45.865Z,70.13
2023-05-06T15:10:54.427Z,71.32
2023-05-06T15:14:02.839Z,72.78
2023-05-06T15:17:11.321Z,73.11
2023-05-06T15:20:19.934Z,71.32
2023-05-06T15:23:34.888Z,71.01
2023-05-06T15:26:48.390Z,72.38
2023-05-06T15:30:02.880Z,72.23
2023-05-06T15:33:11.893Z,70.76
2023-05-06T15:36:34.161Z,71.06
2023-05-06T15:39:42.456Z,69.12
2023-05-06T15:42:58.897Z,68.95
2023-05-06T15:46:07.927Z,69.11
2023-05-06T15:49:39.699Z,68.48
2023-05-06T15:52:50.944Z,69.95
2023-05-06T15:56:13.107Z,70.27
2023-05-06T15:59:30.852Z,69.92
2023-05-06T16:02:57.794Z,67.83
2023-05-06T16:06:07.667Z,67.58
2023-05-06T16:12:49.100Z,64.40
2023-05-06T16:16:03.942Z,63.39
2023-05-06T16:19:12.522Z,65.14
2023-05-06T16:22:20.983Z,65.92
2023-05-06T16:25:35.958Z,66.08
2023-05-06T16:28:43.886Z,66.25
2023-05-06T16:31:59.071Z,66.24
2023-05-06T16:35:16.189Z,66.30
2023-05-06T16:38:24.441Z,65.74
2023-05-06T16:41:39.020Z,65.77
2023-05-06T16:44:41.049Z,65.89
2023-05-06T16:47:55.956Z,65.96
2023-05-06T16:51:05.215Z,66.17
2023-05-06T16:54:15.661Z,66.25
2023-05-06T16:57:29.931Z,65.89
2023-05-06T17:00:38.258Z,66.66
2023-05-06T17:03:46.585Z,67.10
2023-05-06T17:06:54.924Z,67.58
2023-05-06T17:10:10.098Z,67.31
2023-05-06T17:13:12.437Z,68.08
2023-05-06T17:16:26.965Z,67.58
2023-05-06T17:19:29.975Z,67.78
2023-05-06T17:22:47.929Z,67.63
2023-05-06T17:29:16.949Z,68.12
2023-05-06T17:32:26.530Z,68.14
2023-05-06T17:35:41.982Z,67.75
2023-05-06T17:42:17.985Z,68.23
2023-05-06T17:48:44.020Z,68.74
2023-05-06T17:55:16.407Z,67.74
2023-05-06T17:58:25.514Z,68.28
2023-05-06T18:01:41.282Z,68.67
2023-05-06T18:04:50.256Z,69.75
2023-05-06T18:07:58.488Z,69.55
2023-05-06T18:11:07.007Z,69.15
2023-05-06T18:14:22.002Z,69.95
2023-05-06T18:17:29.998Z,70.82
2023-05-06T18:20:38.926Z,71.18
2023-05-06T18:24:01.953Z,70.68
2023-05-06T18:27:13.997Z,70.96
2023-05-06T18:30:29.000Z,70.70
2023-05-06T18:33:44.046Z,70.65
2023-05-06T18:36:59.023Z,71.07
2023-05-06T18:40:08.239Z,70.59
2023-05-06T18:43:17.016Z,70.14
2023-05-06T18:46:31.996Z,69.94
2023-05-06T18:49:40.577Z,68.36
2023-05-06T18:52:49.111Z,66.96
2023-05-06T18:55:57.871Z,66.79
2023-05-06T18:59:12.997Z,67.02
2023-05-06T19:02:21.973Z,68.18
2023-05-06T19:05:30.003Z,68.71
2023-05-06T19:08:38.958Z,69.04
2023-05-06T19:11:47.990Z,68.62
2023-05-06T19:15:03.013Z,68.49
2023-05-06T19:18:05.191Z,68.32
2023-05-06T19:21:21.046Z,67.62
2023-05-06T19:28:01.049Z,68.31
2023-05-06T19:31:17.912Z,68.10
2023-05-06T19:34:40.801Z,68.02
2023-05-06T19:37:48.545Z,68.74
2023-05-06T19:41:03.821Z,70.57
2023-05-06T19:44:05.885Z,71.19
2023-05-06T19:47:21.321Z,71.75
2023-05-06T19:50:23.088Z,71.88
2023-05-06T19:53:39.048Z,72.05
2023-05-06T19:56:47.604Z,72.18
2023-05-06T19:59:56.034Z,72.75
2023-05-06T20:03:05.046Z,72.91
2023-05-06T20:06:16.041Z,73.56
2023-05-06T20:09:24.730Z,73.95
2023-05-06T20:12:33.138Z,74.91
2023-05-06T20:15:48.358Z,75.31
2023-05-06T20:18:50.129Z,76.46
2023-05-06T20:22:06.070Z,75.95
2023-05-06T20:25:13.647Z,78.02
2023-05-06T20:28:28.155Z,77.83
2023-05-06T20:31:36.373Z,76.82
2023-05-06T20:34:51.061Z,73.99
2023-05-06T20:38:14.086Z,73.04
2023-05-06T20:41:22.852Z,72.38
2023-05-06T20:44:31.245Z,71.88
2023-05-06T20:47:39.135Z,71.58
2023-05-06T20:50:47.710Z,71.62
2023-05-06T20:53:56.477Z,71.51
2023-05-06T20:57:05.925Z,71.14
2023-05-06T21:00:22.176Z,69.48
2023-05-06T21:03:30.886Z,68.79
2023-05-06T21:06:39.072Z,68.96
2023-05-06T21:09:47.805Z,68.61
2023-05-06T21:12:57.124Z,68.93
2023-05-06T21:16:05.814Z,68.78
2023-05-06T21:19:14.102Z,70.52
2023-05-06T21:22:36.109Z,71.17
2023-05-06T21:25:52.066Z,72.36
2023-05-06T21:29:11.268Z,73.34
2023-05-06T21:32:26.292Z,74.83
2023-05-06T21:35:48.102Z,75.34
2023-05-06T21:39:07.096Z,75.37
2023-05-06T21:42:22.432Z,76.11
2023-05-06T21:45:37.125Z,76.43
2023-05-06T21:48:45.128Z,76.49
2023-05-06T21:51:53.643Z,76.48
2023-05-06T21:55:02.082Z,76.53
2023-05-06T21:58:10.970Z,77.34
2023-05-06T22:01:19.310Z,77.18
2023-05-06T22:04:34.532Z,77.22
2023-05-06T22:07:36.470Z,76.84
2023-05-06T22:10:51.235Z,76.36
2023-05-06T22:13:52.936Z,77.49
2023-05-06T22:17:07.165Z,76.38
2023-05-06T22:20:22.106Z,75.79
2023-05-06T22:23:30.690Z,76.06
2023-05-06T22:26:39.206Z,76.43
2023-05-06T22:29:47.678Z,76.38
2023-05-06T22:32:56.204Z,76.98
2023-05-06T22:36:11.237Z,77.17
2023-05-06T22:39:28.409Z,77.38
2023-05-06T22:42:43.202Z,77.86
2023-05-06T22:45:58.152Z,78.18
2023-05-06T22:49:06.613Z,78.70
2023-05-06T22:52:15.117Z,79.37
2023-05-06T22:55:30.181Z,79.88
2023-05-06T22:58:31.909Z,80.44
2023-05-06T23:01:46.308Z,80.84
2023-05-06T23:04:48.181Z,81.15
2023-05-06T23:08:03.261Z,81.17
2023-05-06T23:11:05.222Z,80.77
2023-05-06T23:14:21.149Z,80.57
2023-05-06T23:17:29.219Z,80.50
2023-05-06T23:20:37.659Z,80.83
2023-05-06T23:23:46.184Z,80.83
2023-05-06T23:27:01.486Z,80.74
2023-05-06T23:30:10.626Z,80.70
2023-05-06T23:33:20.280Z,80.30
2023-05-06T23:36:42.898Z,80.35
2023-05-06T23:39:57.158Z,80.26
2023-05-06T23:43:05.188Z,78.93
2023-05-06T23:46:13.719Z,78.18
2023-05-06T23:49:22.478Z,77.89
2023-05-06T23:52:30.756Z,77.22
2023-05-06T23:55:39.162Z,77.22
2023-05-06T23:58:54.189Z,77.66
